sensor_id;sensor_type;location;lat;lon;timestamp;P1;durP1;ratioP1;P2;durP2;ratioP2
33900;SDS011;20193;49.810;6.418;2022-08-19T00:01:30;11.52;;;10.73;;
33900;SDS011;20193;49.810;6.418;2022-08-19T00:04:01;11.95;;;11.05;;
33900;SDS011;20193;49.810;6.418;2022-08-19T00:06:29;11.32;;;10.43;;
33900;SDS011;20193;49.810;6.418;2022-08-19T00:08:55;12.10;;;11.20;;
33900;SDS011;20193;49.810;6.418;2022-08-19T00:11:22;12.27;;;11.52;;
33900;SDS011;20193;49.810;6.418;2022-08-19T00:13:49;12.18;;;11.38;;
33900;SDS011;20193;49.810;6.418;2022-08-19T00:16:18;11.35;;;10.60;;
33900;SDS011;20193;49.810;6.418;2022-08-19T00:18:44;11.40;;;10.63;;
33900;SDS011;20193;49.810;6.418;2022-08-19T00:21:10;11.55;;;10.75;;
33900;SDS011;20193;49.810;6.418;2022-08-19T00:23:36;12.10;;;11.30;;
33900;SDS011;20193;49.810;6.418;2022-08-19T00:26:02;12.07;;;11.20;;
33900;SDS011;20193;49.810;6.418;2022-08-19T00:28:29;11.95;;;11.15;;
33900;SDS011;20193;49.810;6.418;2022-08-19T00:30:55;13.20;;;12.23;;
33900;SDS011;20193;49.810;6.418;2022-08-19T00:33:21;13.60;;;12.70;;
33900;SDS011;20193;49.810;6.418;2022-08-19T00:35:47;12.38;;;11.57;;
33900;SDS011;20193;49.810;6.418;2022-08-19T00:38:13;13.77;;;12.75;;
33900;SDS011;20193;49.810;6.418;2022-08-19T00:40:39;13.45;;;12.45;;
33900;SDS011;20193;49.810;6.418;2022-08-19T00:43:07;13.90;;;12.77;;
33900;SDS011;20193;49.810;6.418;2022-08-19T00:45:35;12.70;;;11.75;;
33900;SDS011;20193;49.810;6.418;2022-08-19T00:48:01;12.65;;;11.80;;
33900;SDS011;20193;49.810;6.418;2022-08-19T00:50:29;12.82;;;11.82;;
33900;SDS011;20193;49.810;6.418;2022-08-19T00:52:56;13.02;;;12.02;;
33900;SDS011;20193;49.810;6.418;2022-08-19T00:55:23;13.48;;;12.60;;
33900;SDS011;20193;49.810;6.418;2022-08-19T00:57:55;13.98;;;13.07;;
33900;SDS011;20193;49.810;6.418;2022-08-19T01:00:24;13.32;;;12.43;;
33900;SDS011;20193;49.810;6.418;2022-08-19T01:02:53;13.82;;;12.75;;
33900;SDS011;20193;49.810;6.418;2022-08-19T01:05:20;14.10;;;13.02;;
33900;SDS011;20193;49.810;6.418;2022-08-19T01:07:49;12.85;;;12.02;;
33900;SDS011;20193;49.810;6.418;2022-08-19T01:10:17;13.13;;;12.15;;
33900;SDS011;20193;49.810;6.418;2022-08-19T01:12:45;13.15;;;12.23;;
33900;SDS011;20193;49.810;6.418;2022-08-19T01:15:12;13.73;;;12.85;;
33900;SDS011;20193;49.810;6.418;2022-08-19T01:17:41;12.85;;;11.95;;
33900;SDS011;20193;49.810;6.418;2022-08-19T01:20:16;12.77;;;11.98;;
33900;SDS011;20193;49.810;6.418;2022-08-19T01:22:52;14.60;;;13.50;;
33900;SDS011;20193;49.810;6.418;2022-08-19T01:25:22;13.00;;;12.05;;
33900;SDS011;20193;49.810;6.418;2022-08-19T01:28:01;13.68;;;12.73;;
33900;SDS011;20193;49.810;6.418;2022-08-19T01:30:28;14.07;;;13.07;;
33900;SDS011;20193;49.810;6.418;2022-08-19T01:32:57;14.50;;;13.50;;
33900;SDS011;20193;49.810;6.418;2022-08-19T01:35:25;13.35;;;12.45;;
33900;SDS011;20193;49.810;6.418;2022-08-19T01:40:21;14.13;;;13.27;;
33900;SDS011;20193;49.810;6.418;2022-08-19T01:42:51;13.77;;;12.77;;
33900;SDS011;20193;49.810;6.418;2022-08-19T01:45:18;13.88;;;12.88;;
33900;SDS011;20193;49.810;6.418;2022-08-19T01:47:45;13.85;;;12.95;;
33900;SDS011;20193;49.810;6.418;2022-08-19T01:50:11;13.30;;;12.40;;
33900;SDS011;20193;49.810;6.418;2022-08-19T01:52:38;13.02;;;12.02;;
33900;SDS011;20193;49.810;6.418;2022-08-19T01:55:05;12.65;;;11.75;;
33900;SDS011;20193;49.810;6.418;2022-08-19T01:57:37;13.27;;;12.43;;
33900;SDS011;20193;49.810;6.418;2022-08-19T02:00:04;13.57;;;12.68;;
33900;SDS011;20193;49.810;6.418;2022-08-19T02:02:32;12.68;;;11.85;;
33900;SDS011;20193;49.810;6.418;2022-08-19T02:04:58;13.07;;;12.18;;
33900;SDS011;20193;49.810;6.418;2022-08-19T02:07:24;12.18;;;11.40;;
33900;SDS011;20193;49.810;6.418;2022-08-19T02:09:50;12.63;;;11.68;;
33900;SDS011;20193;49.810;6.418;2022-08-19T02:12:15;11.90;;;11.20;;
33900;SDS011;20193;49.810;6.418;2022-08-19T02:14:41;13.30;;;12.40;;
33900;SDS011;20193;49.810;6.418;2022-08-19T02:17:07;13.07;;;12.18;;
33900;SDS011;20193;49.810;6.418;2022-08-19T02:19:32;12.40;;;11.55;;
33900;SDS011;20193;49.810;6.418;2022-08-19T02:21:58;12.13;;;11.30;;
33900;SDS011;20193;49.810;6.418;2022-08-19T02:24:24;13.20;;;12.35;;
33900;SDS011;20193;49.810;6.418;2022-08-19T02:26:51;12.80;;;12.00;;
33900;SDS011;20193;49.810;6.418;2022-08-19T02:29:17;13.15;;;12.15;;
33900;SDS011;20193;49.810;6.418;2022-08-19T02:31:42;13.02;;;12.10;;
33900;SDS011;20193;49.810;6.418;2022-08-19T02:34:08;13.30;;;12.32;;
33900;SDS011;20193;49.810;6.418;2022-08-19T02:36:33;12.88;;;12.07;;
33900;SDS011;20193;49.810;6.418;2022-08-19T02:38:59;13.00;;;12.00;;
33900;SDS011;20193;49.810;6.418;2022-08-19T02:41:26;12.70;;;11.55;;
33900;SDS011;20193;49.810;6.418;2022-08-19T02:43:57;13.20;;;12.40;;
33900;SDS011;20193;49.810;6.418;2022-08-19T02:46:26;11.80;;;11.10;;
33900;SDS011;20193;49.810;6.418;2022-08-19T02:48:54;13.38;;;12.57;;
33900;SDS011;20193;49.810;6.418;2022-08-19T02:51:26;13.07;;;12.18;;
33900;SDS011;20193;49.810;6.418;2022-08-19T02:53:54;13.27;;;12.43;;
33900;SDS011;20193;49.810;6.418;2022-08-19T02:56:20;12.88;;;11.95;;
33900;SDS011;20193;49.810;6.418;2022-08-19T02:58:47;12.93;;;11.93;;
33900;SDS011;20193;49.810;6.418;2022-08-19T03:01:24;13.43;;;12.57;;
33900;SDS011;20193;49.810;6.418;2022-08-19T03:03:52;12.95;;;12.15;;
33900;SDS011;20193;49.810;6.418;2022-08-19T03:06:18;12.63;;;11.68;;
33900;SDS011;20193;49.810;6.418;2022-08-19T03:08:45;13.48;;;12.57;;
33900;SDS011;20193;49.810;6.418;2022-08-19T03:13:42;14.13;;;13.23;;
33900;SDS011;20193;49.810;6.418;2022-08-19T03:16:08;12.90;;;12.02;;
33900;SDS011;20193;49.810;6.418;2022-08-19T03:18:35;13.65;;;12.70;;
33900;SDS011;20193;49.810;6.418;2022-08-19T03:21:00;13.73;;;12.68;;
33900;SDS011;20193;49.810;6.418;2022-08-19T03:23:26;13.90;;;12.93;;
33900;SDS011;20193;49.810;6.418;2022-08-19T03:25:52;13.90;;;12.80;;
33900;SDS011;20193;49.810;6.418;2022-08-19T03:28:18;13.77;;;12.75;;
33900;SDS011;20193;49.810;6.418;2022-08-19T03:31:05;14.27;;;13.27;;
33900;SDS011;20193;49.810;6.418;2022-08-19T03:33:33;13.75;;;12.75;;
33900;SDS011;20193;49.810;6.418;2022-08-19T03:36:04;13.52;;;12.63;;
33900;SDS011;20193;49.810;6.418;2022-08-19T03:38:36;14.10;;;13.02;;
33900;SDS011;20193;49.810;6.418;2022-08-19T03:41:03;15.02;;;14.10;;
33900;SDS011;20193;49.810;6.418;2022-08-19T03:43:34;13.55;;;12.55;;
33900;SDS011;20193;49.810;6.418;2022-08-19T03:46:03;12.82;;;11.98;;
33900;SDS011;20193;49.810;6.418;2022-08-19T03:48:31;12.90;;;12.10;;
33900;SDS011;20193;49.810;6.418;2022-08-19T03:50:58;14.68;;;13.63;;
33900;SDS011;20193;49.810;6.418;2022-08-19T03:53:25;15.13;;;14.13;;
33900;SDS011;20193;49.810;6.418;2022-08-19T03:55:54;14.18;;;13.05;;
33900;SDS011;20193;49.810;6.418;2022-08-19T03:58:21;15.82;;;14.35;;
33900;SDS011;20193;49.810;6.418;2022-08-19T04:00:47;13.48;;;12.48;;
33900;SDS011;20193;49.810;6.418;2022-08-19T04:03:13;13.70;;;12.68;;
33900;SDS011;20193;49.810;6.418;2022-08-19T04:05:38;14.82;;;13.82;;
33900;SDS011;20193;49.810;6.418;2022-08-19T04:08:04;15.10;;;14.05;;
33900;SDS011;20193;49.810;6.418;2022-08-19T04:10:30;14.65;;;13.75;;
33900;SDS011;20193;49.810;6.418;2022-08-19T04:13:00;14.50;;;13.50;;
33900;SDS011;20193;49.810;6.418;2022-08-19T04:15:25;14.82;;;13.82;;
33900;SDS011;20193;49.810;6.418;2022-08-19T04:17:52;14.70;;;13.65;;
33900;SDS011;20193;49.810;6.418;2022-08-19T04:20:18;14.05;;;13.20;;
33900;SDS011;20193;49.810;6.418;2022-08-19T04:22:43;16.40;;;15.25;;
33900;SDS011;20193;49.810;6.418;2022-08-19T04:25:09;15.20;;;14.20;;
33900;SDS011;20193;49.810;6.418;2022-08-19T04:27:35;16.50;;;15.30;;
33900;SDS011;20193;49.810;6.418;2022-08-19T04:30:01;15.07;;;14.07;;
33900;SDS011;20193;49.810;6.418;2022-08-19T04:32:26;16.10;;;15.00;;
33900;SDS011;20193;49.810;6.418;2022-08-19T04:34:52;15.88;;;14.77;;
33900;SDS011;20193;49.810;6.418;2022-08-19T04:37:18;16.10;;;15.02;;
33900;SDS011;20193;49.810;6.418;2022-08-19T04:39:43;15.77;;;14.68;;
33900;SDS011;20193;49.810;6.418;2022-08-19T04:42:28;16.60;;;15.50;;
33900;SDS011;20193;49.810;6.418;2022-08-19T04:45:06;16.65;;;15.35;;
33900;SDS011;20193;49.810;6.418;2022-08-19T04:47:38;28.40;;;26.40;;
33900;SDS011;20193;49.810;6.418;2022-08-19T04:50:06;18.83;;;17.40;;
33900;SDS011;20193;49.810;6.418;2022-08-19T04:52:32;17.05;;;15.95;;
33900;SDS011;20193;49.810;6.418;2022-08-19T04:54:58;15.73;;;14.52;;
33900;SDS011;20193;49.810;6.418;2022-08-19T04:57:25;15.70;;;14.50;;
33900;SDS011;20193;49.810;6.418;2022-08-19T04:59:54;16.60;;;15.40;;
33900;SDS011;20193;49.810;6.418;2022-08-19T05:02:21;16.90;;;15.55;;
33900;SDS011;20193;49.810;6.418;2022-08-19T05:04:50;16.48;;;15.38;;
33900;SDS011;20193;49.810;6.418;2022-08-19T05:07:21;16.25;;;15.13;;
33900;SDS011;20193;49.810;6.418;2022-08-19T05:09:46;17.23;;;15.88;;
33900;SDS011;20193;49.810;6.418;2022-08-19T05:12:12;17.13;;;15.63;;
33900;SDS011;20193;49.810;6.418;2022-08-19T05:14:37;16.42;;;15.32;;
33900;SDS011;20193;49.810;6.418;2022-08-19T05:17:03;17.30;;;16.02;;
33900;SDS011;20193;49.810;6.418;2022-08-19T05:19:29;15.88;;;14.88;;
33900;SDS011;20193;49.810;6.418;2022-08-19T05:22:13;16.10;;;15.07;;
33900;SDS011;20193;49.810;6.418;2022-08-19T05:24:57;17.27;;;15.98;;
33900;SDS011;20193;49.810;6.418;2022-08-19T05:27:23;16.50;;;15.40;;
33900;SDS011;20193;49.810;6.418;2022-08-19T05:29:48;18.35;;;16.95;;
33900;SDS011;20193;49.810;6.418;2022-08-19T05:32:14;17.83;;;16.63;;
33900;SDS011;20193;49.810;6.418;2022-08-19T05:34:39;18.58;;;17.27;;
33900;SDS011;20193;49.810;6.418;2022-08-19T05:37:05;18.77;;;17.50;;
33900;SDS011;20193;49.810;6.418;2022-08-19T05:39:33;18.10;;;16.98;;
33900;SDS011;20193;49.810;6.418;2022-08-19T05:42:02;18.40;;;16.95;;
33900;SDS011;20193;49.810;6.418;2022-08-19T05:44:35;18.00;;;16.77;;
33900;SDS011;20193;49.810;6.418;2022-08-19T05:47:05;19.73;;;18.13;;
33900;SDS011;20193;49.810;6.418;2022-08-19T05:49:33;17.80;;;16.60;;
33900;SDS011;20193;49.810;6.418;2022-08-19T05:52:02;18.70;;;17.30;;
33900;SDS011;20193;49.810;6.418;2022-08-19T05:54:32;18.23;;;17.02;;
33900;SDS011;20193;49.810;6.418;2022-08-19T05:56:58;18.75;;;17.45;;
33900;SDS011;20193;49.810;6.418;2022-08-19T05:59:26;19.05;;;17.55;;
33900;SDS011;20193;49.810;6.418;2022-08-19T06:01:52;20.20;;;18.80;;
33900;SDS011;20193;49.810;6.418;2022-08-19T06:04:20;19.17;;;17.48;;
33900;SDS011;20193;49.810;6.418;2022-08-19T06:06:47;19.73;;;18.33;;
33900;SDS011;20193;49.810;6.418;2022-08-19T06:09:15;20.10;;;18.30;;
33900;SDS011;20193;49.810;6.418;2022-08-19T06:11:51;19.23;;;17.58;;
33900;SDS011;20193;49.810;6.418;2022-08-19T06:14:20;19.85;;;18.55;;
33900;SDS011;20193;49.810;6.418;2022-08-19T06:16:48;18.52;;;17.33;;
33900;SDS011;20193;49.810;6.418;2022-08-19T06:19:16;22.10;;;19.85;;
33900;SDS011;20193;49.810;6.418;2022-08-19T06:21:45;19.48;;;18.17;;
33900;SDS011;20193;49.810;6.418;2022-08-19T06:24:14;18.45;;;17.17;;
33900;SDS011;20193;49.810;6.418;2022-08-19T06:26:42;20.83;;;19.45;;
33900;SDS011;20193;49.810;6.418;2022-08-19T06:29:10;19.48;;;18.05;;
33900;SDS011;20193;49.810;6.418;2022-08-19T06:31:40;19.30;;;18.00;;
33900;SDS011;20193;49.810;6.418;2022-08-19T06:34:07;18.48;;;17.17;;
33900;SDS011;20193;49.810;6.418;2022-08-19T06:36:35;17.42;;;15.80;;
33900;SDS011;20193;49.810;6.418;2022-08-19T06:39:03;17.60;;;16.30;;
33900;SDS011;20193;49.810;6.418;2022-08-19T06:41:30;17.67;;;16.27;;
33900;SDS011;20193;49.810;6.418;2022-08-19T06:43:59;18.88;;;17.38;;
33900;SDS011;20193;49.810;6.418;2022-08-19T06:46:25;18.10;;;16.55;;
33900;SDS011;20193;49.810;6.418;2022-08-19T06:48:51;20.38;;;18.55;;
33900;SDS011;20193;49.810;6.418;2022-08-19T06:51:18;19.25;;;17.90;;
33900;SDS011;20193;49.810;6.418;2022-08-19T06:53:46;19.02;;;17.35;;
33900;SDS011;20193;49.810;6.418;2022-08-19T06:56:13;20.05;;;18.50;;
33900;SDS011;20193;49.810;6.418;2022-08-19T06:58:41;19.17;;;17.58;;
33900;SDS011;20193;49.810;6.418;2022-08-19T07:01:07;19.52;;;18.00;;
33900;SDS011;20193;49.810;6.418;2022-08-19T07:03:34;20.75;;;19.05;;
33900;SDS011;20193;49.810;6.418;2022-08-19T07:06:08;17.95;;;16.38;;
33900;SDS011;20193;49.810;6.418;2022-08-19T07:08:36;19.08;;;17.67;;
33900;SDS011;20193;49.810;6.418;2022-08-19T07:11:06;15.55;;;14.18;;
33900;SDS011;20193;49.810;6.418;2022-08-19T07:13:33;14.30;;;13.20;;
33900;SDS011;20193;49.810;6.418;2022-08-19T07:16:07;15.20;;;13.90;;
33900;SDS011;20193;49.810;6.418;2022-08-19T07:18:36;14.18;;;13.07;;
33900;SDS011;20193;49.810;6.418;2022-08-19T07:21:03;15.07;;;13.98;;
33900;SDS011;20193;49.810;6.418;2022-08-19T07:23:34;15.05;;;13.85;;
33900;SDS011;20193;49.810;6.418;2022-08-19T07:28:57;16.02;;;14.82;;
33900;SDS011;20193;49.810;6.418;2022-08-19T07:31:25;16.42;;;15.13;;
33900;SDS011;20193;49.810;6.418;2022-08-19T07:33:53;18.02;;;16.50;;
33900;SDS011;20193;49.810;6.418;2022-08-19T07:36:25;16.10;;;14.65;;
33900;SDS011;20193;49.810;6.418;2022-08-19T07:38:56;18.75;;;17.20;;
33900;SDS011;20193;49.810;6.418;2022-08-19T07:41:23;16.70;;;15.30;;
33900;SDS011;20193;49.810;6.418;2022-08-19T07:43:51;18.60;;;17.20;;
33900;SDS011;20193;49.810;6.418;2022-08-19T07:46:17;17.38;;;16.08;;
33900;SDS011;20193;49.810;6.418;2022-08-19T07:48:45;17.85;;;16.48;;
33900;SDS011;20193;49.810;6.418;2022-08-19T07:51:15;18.80;;;17.40;;
33900;SDS011;20193;49.810;6.418;2022-08-19T07:53:42;19.02;;;17.38;;
33900;SDS011;20193;49.810;6.418;2022-08-19T07:56:10;18.17;;;16.67;;
33900;SDS011;20193;49.810;6.418;2022-08-19T07:58:38;18.33;;;16.92;;
33900;SDS011;20193;49.810;6.418;2022-08-19T08:01:07;18.80;;;17.27;;
33900;SDS011;20193;49.810;6.418;2022-08-19T08:03:35;18.60;;;17.10;;
33900;SDS011;20193;49.810;6.418;2022-08-19T08:06:20;18.92;;;17.58;;
33900;SDS011;20193;49.810;6.418;2022-08-19T08:09:05;19.73;;;18.20;;
33900;SDS011;20193;49.810;6.418;2022-08-19T08:12:00;21.08;;;19.38;;
33900;SDS011;20193;49.810;6.418;2022-08-19T08:14:33;18.70;;;17.40;;
33900;SDS011;20193;49.810;6.418;2022-08-19T08:17:03;18.70;;;17.20;;
33900;SDS011;20193;49.810;6.418;2022-08-19T08:19:30;19.35;;;17.85;;
33900;SDS011;20193;49.810;6.418;2022-08-19T08:21:57;18.92;;;17.20;;
33900;SDS011;20193;49.810;6.418;2022-08-19T08:24:25;18.08;;;16.77;;
33900;SDS011;20193;49.810;6.418;2022-08-19T08:26:52;17.63;;;16.33;;
33900;SDS011;20193;49.810;6.418;2022-08-19T08:29:18;19.77;;;18.15;;
33900;SDS011;20193;49.810;6.418;2022-08-19T08:31:44;18.08;;;16.85;;
33900;SDS011;20193;49.810;6.418;2022-08-19T08:34:12;17.45;;;16.13;;
33900;SDS011;20193;49.810;6.418;2022-08-19T08:36:39;19.33;;;17.73;;
33900;SDS011;20193;49.810;6.418;2022-08-19T08:39:08;18.73;;;17.42;;
33900;SDS011;20193;49.810;6.418;2022-08-19T08:41:37;16.63;;;15.32;;
33900;SDS011;20193;49.810;6.418;2022-08-19T08:44:19;15.13;;;13.93;;
33900;SDS011;20193;49.810;6.418;2022-08-19T08:46:51;16.73;;;15.45;;
33900;SDS011;20193;49.810;6.418;2022-08-19T08:52:00;16.52;;;15.13;;
33900;SDS011;20193;49.810;6.418;2022-08-19T08:54:40;13.60;;;12.50;;
33900;SDS011;20193;49.810;6.418;2022-08-19T08:57:19;13.52;;;12.60;;
33900;SDS011;20193;49.810;6.418;2022-08-19T09:00:05;12.98;;;11.98;;
33900;SDS011;20193;49.810;6.418;2022-08-19T09:02:37;11.85;;;11.05;;
33900;SDS011;20193;49.810;6.418;2022-08-19T09:05:03;10.93;;;10.27;;
33900;SDS011;20193;49.810;6.418;2022-08-19T09:10:15;12.23;;;11.32;;
33900;SDS011;20193;49.810;6.418;2022-08-19T09:16:00;13.15;;;12.25;;
33900;SDS011;20193;49.810;6.418;2022-08-19T09:18:43;13.55;;;12.45;;
33900;SDS011;20193;49.810;6.418;2022-08-19T09:21:12;12.43;;;11.48;;
33900;SDS011;20193;49.810;6.418;2022-08-19T09:23:39;12.25;;;11.52;;
33900;SDS011;20193;49.810;6.418;2022-08-19T09:26:08;11.70;;;10.90;;
33900;SDS011;20193;49.810;6.418;2022-08-19T09:28:38;13.63;;;12.68;;
33900;SDS011;20193;49.810;6.418;2022-08-19T09:31:15;14.80;;;13.80;;
33900;SDS011;20193;49.810;6.418;2022-08-19T09:33:43;12.02;;;11.13;;
33900;SDS011;20193;49.810;6.418;2022-08-19T09:36:10;15.52;;;14.43;;
33900;SDS011;20193;49.810;6.418;2022-08-19T09:38:38;16.15;;;15.02;;
33900;SDS011;20193;49.810;6.418;2022-08-19T09:41:09;15.55;;;14.55;;
33900;SDS011;20193;49.810;6.418;2022-08-19T09:43:38;14.57;;;13.57;;
33900;SDS011;20193;49.810;6.418;2022-08-19T09:46:06;14.63;;;13.63;;
33900;SDS011;20193;49.810;6.418;2022-08-19T09:48:34;13.52;;;12.60;;
33900;SDS011;20193;49.810;6.418;2022-08-19T09:51:04;14.77;;;13.68;;
33900;SDS011;20193;49.810;6.418;2022-08-19T09:53:30;13.02;;;12.13;;
33900;SDS011;20193;49.810;6.418;2022-08-19T09:55:56;16.15;;;14.98;;
33900;SDS011;20193;49.810;6.418;2022-08-19T09:58:21;13.10;;;12.10;;
33900;SDS011;20193;49.810;6.418;2022-08-19T10:00:52;15.73;;;14.48;;
33900;SDS011;20193;49.810;6.418;2022-08-19T10:03:25;14.07;;;13.05;;
33900;SDS011;20193;49.810;6.418;2022-08-19T10:05:52;15.93;;;14.45;;
33900;SDS011;20193;49.810;6.418;2022-08-19T10:08:19;11.93;;;10.98;;
33900;SDS011;20193;49.810;6.418;2022-08-19T10:10:48;11.48;;;10.48;;
33900;SDS011;20193;49.810;6.418;2022-08-19T10:13:14;11.60;;;10.80;;
33900;SDS011;20193;49.810;6.418;2022-08-19T10:15:42;12.55;;;11.55;;
33900;SDS011;20193;49.810;6.418;2022-08-19T10:18:08;10.15;;;9.35;;
33900;SDS011;20193;49.810;6.418;2022-08-19T10:20:33;10.20;;;9.30;;
33900;SDS011;20193;49.810;6.418;2022-08-19T10:23:01;10.48;;;9.68;;
33900;SDS011;20193;49.810;6.418;2022-08-19T10:25:28;10.27;;;9.57;;
33900;SDS011;20193;49.810;6.418;2022-08-19T10:27:56;9.13;;;8.52;;
33900;SDS011;20193;49.810;6.418;2022-08-19T10:30:22;9.18;;;8.45;;
33900;SDS011;20193;49.810;6.418;2022-08-19T10:32:47;9.88;;;8.98;;
33900;SDS011;20193;49.810;6.418;2022-08-19T10:35:13;11.43;;;10.63;;
33900;SDS011;20193;49.810;6.418;2022-08-19T10:37:42;12.20;;;11.10;;
33900;SDS011;20193;49.810;6.418;2022-08-19T10:40:08;15.43;;;14.27;;
33900;SDS011;20193;49.810;6.418;2022-08-19T10:42:36;13.95;;;12.85;;
33900;SDS011;20193;49.810;6.418;2022-08-19T10:45:03;15.25;;;13.95;;
33900;SDS011;20193;49.810;6.418;2022-08-19T10:47:34;13.38;;;12.25;;
33900;SDS011;20193;49.810;6.418;2022-08-19T10:50:00;13.85;;;12.77;;
33900;SDS011;20193;49.810;6.418;2022-08-19T10:52:45;16.55;;;14.93;;
33900;SDS011;20193;49.810;6.418;2022-08-19T10:55:12;15.35;;;14.00;;
33900;SDS011;20193;49.810;6.418;2022-08-19T10:57:56;14.93;;;13.70;;
33900;SDS011;20193;49.810;6.418;2022-08-19T11:00:22;14.80;;;13.55;;
33900;SDS011;20193;49.810;6.418;2022-08-19T11:02:49;15.38;;;13.85;;
33900;SDS011;20193;49.810;6.418;2022-08-19T11:05:15;13.45;;;12.35;;
33900;SDS011;20193;49.810;6.418;2022-08-19T11:07:42;15.18;;;13.77;;
33900;SDS011;20193;49.810;6.418;2022-08-19T11:10:11;12.63;;;11.50;;
33900;SDS011;20193;49.810;6.418;2022-08-19T11:12:39;15.95;;;11.88;;
33900;SDS011;20193;49.810;6.418;2022-08-19T11:15:06;13.18;;;11.90;;
33900;SDS011;20193;49.810;6.418;2022-08-19T11:17:36;10.25;;;9.38;;
33900;SDS011;20193;49.810;6.418;2022-08-19T11:20:06;10.77;;;9.85;;
33900;SDS011;20193;49.810;6.418;2022-08-19T11:22:33;10.07;;;9.38;;
33900;SDS011;20193;49.810;6.418;2022-08-19T11:24:59;9.45;;;8.60;;
33900;SDS011;20193;49.810;6.418;2022-08-19T11:27:24;9.98;;;9.07;;
33900;SDS011;20193;49.810;6.418;2022-08-19T11:29:50;10.10;;;9.40;;
33900;SDS011;20193;49.810;6.418;2022-08-19T11:32:17;9.82;;;9.02;;
33900;SDS011;20193;49.810;6.418;2022-08-19T11:34:43;8.50;;;7.70;;
33900;SDS011;20193;49.810;6.418;2022-08-19T11:37:08;8.57;;;7.97;;
33900;SDS011;20193;49.810;6.418;2022-08-19T11:39:34;8.32;;;7.57;;
33900;SDS011;20193;49.810;6.418;2022-08-19T11:42:01;8.93;;;8.23;;
33900;SDS011;20193;49.810;6.418;2022-08-19T11:44:48;8.05;;;7.38;;
33900;SDS011;20193;49.810;6.418;2022-08-19T11:47:14;8.25;;;7.55;;
33900;SDS011;20193;49.810;6.418;2022-08-19T11:49:40;13.10;;;12.00;;
33900;SDS011;20193;49.810;6.418;2022-08-19T11:52:07;14.77;;;13.48;;
33900;SDS011;20193;49.810;6.418;2022-08-19T11:54:33;13.60;;;12.65;;
33900;SDS011;20193;49.810;6.418;2022-08-19T11:56:58;15.07;;;13.90;;
33900;SDS011;20193;49.810;6.418;2022-08-19T11:59:25;14.57;;;13.20;;
33900;SDS011;20193;49.810;6.418;2022-08-19T12:01:52;13.57;;;12.57;;
33900;SDS011;20193;49.810;6.418;2022-08-19T12:04:17;11.82;;;10.93;;
33900;SDS011;20193;49.810;6.418;2022-08-19T12:06:43;11.38;;;10.48;;
33900;SDS011;20193;49.810;6.418;2022-08-19T12:09:09;12.10;;;11.10;;
33900;SDS011;20193;49.810;6.418;2022-08-19T12:11:36;10.60;;;9.80;;
33900;SDS011;20193;49.810;6.418;2022-08-19T12:14:03;9.18;;;8.38;;
33900;SDS011;20193;49.810;6.418;2022-08-19T12:16:29;7.68;;;7.07;;
33900;SDS011;20193;49.810;6.418;2022-08-19T12:18:56;7.13;;;6.63;;
33900;SDS011;20193;49.810;6.418;2022-08-19T12:21:25;6.75;;;6.25;;
33900;SDS011;20193;49.810;6.418;2022-08-19T12:23:53;10.35;;;9.48;;
33900;SDS011;20193;49.810;6.418;2022-08-19T12:26:21;10.35;;;9.60;;
33900;SDS011;20193;49.810;6.418;2022-08-19T12:28:47;12.07;;;11.13;;
33900;SDS011;20193;49.810;6.418;2022-08-19T12:31:13;11.30;;;10.40;;
33900;SDS011;20193;49.810;6.418;2022-08-19T12:33:39;10.40;;;9.60;;
33900;SDS011;20193;49.810;6.418;2022-08-19T12:36:07;10.52;;;9.77;;
33900;SDS011;20193;49.810;6.418;2022-08-19T12:38:34;9.73;;;9.02;;
33900;SDS011;20193;49.810;6.418;2022-08-19T12:41:01;10.02;;;9.18;;
33900;SDS011;20193;49.810;6.418;2022-08-19T12:43:30;9.93;;;9.23;;
33900;SDS011;20193;49.810;6.418;2022-08-19T12:45:56;9.55;;;8.85;;
33900;SDS011;20193;49.810;6.418;2022-08-19T12:48:22;9.20;;;8.05;;
33900;SDS011;20193;49.810;6.418;2022-08-19T12:50:47;10.07;;;9.30;;
33900;SDS011;20193;49.810;6.418;2022-08-19T12:53:13;9.05;;;8.45;;
33900;SDS011;20193;49.810;6.418;2022-08-19T12:55:40;9.52;;;8.82;;
33900;SDS011;20193;49.810;6.418;2022-08-19T12:58:07;10.82;;;10.02;;
33900;SDS011;20193;49.810;6.418;2022-08-19T13:00:36;11.48;;;10.48;;
33900;SDS011;20193;49.810;6.418;2022-08-19T13:03:02;11.80;;;10.55;;
33900;SDS011;20193;49.810;6.418;2022-08-19T13:05:30;10.82;;;9.85;;
33900;SDS011;20193;49.810;6.418;2022-08-19T13:07:58;9.88;;;9.18;;
33900;SDS011;20193;49.810;6.418;2022-08-19T13:10:26;9.43;;;8.73;;
33900;SDS011;20193;49.810;6.418;2022-08-19T13:12:54;9.18;;;8.38;;
33900;SDS011;20193;49.810;6.418;2022-08-19T13:15:20;8.98;;;8.27;;
33900;SDS011;20193;49.810;6.418;2022-08-19T13:17:48;6.63;;;6.18;;
33900;SDS011;20193;49.810;6.418;2022-08-19T13:20:16;8.20;;;7.45;;
33900;SDS011;20193;49.810;6.418;2022-08-19T13:22:44;6.95;;;6.45;;
33900;SDS011;20193;49.810;6.418;2022-08-19T13:25:11;6.88;;;6.30;;
33900;SDS011;20193;49.810;6.418;2022-08-19T13:27:37;6.30;;;5.80;;
33900;SDS011;20193;49.810;6.418;2022-08-19T13:30:04;6.07;;;5.53;;
33900;SDS011;20193;49.810;6.418;2022-08-19T13:32:51;5.72;;;5.13;;
33900;SDS011;20193;49.810;6.418;2022-08-19T13:35:35;6.07;;;5.68;;
33900;SDS011;20193;49.810;6.418;2022-08-19T13:38:01;6.28;;;5.78;;
33900;SDS011;20193;49.810;6.418;2022-08-19T13:40:29;6.28;;;5.78;;
33900;SDS011;20193;49.810;6.418;2022-08-19T13:42:58;5.82;;;5.43;;
33900;SDS011;20193;49.810;6.418;2022-08-19T13:45:29;6.05;;;5.60;;
33900;SDS011;20193;49.810;6.418;2022-08-19T13:47:58;5.75;;;5.25;;
33900;SDS011;20193;49.810;6.418;2022-08-19T13:50:25;5.20;;;4.70;;
33900;SDS011;20193;49.810;6.418;2022-08-19T13:52:53;6.35;;;5.10;;
33900;SDS011;20193;49.810;6.418;2022-08-19T13:55:19;4.47;;;4.18;;
33900;SDS011;20193;49.810;6.418;2022-08-19T13:57:46;4.30;;;4.00;;
33900;SDS011;20193;49.810;6.418;2022-08-19T14:00:17;3.78;;;3.25;;
33900;SDS011;20193;49.810;6.418;2022-08-19T14:02:43;3.47;;;2.95;;
33900;SDS011;20193;49.810;6.418;2022-08-19T14:05:11;3.30;;;3.00;;
33900;SDS011;20193;49.810;6.418;2022-08-19T14:07:38;3.40;;;3.10;;
33900;SDS011;20193;49.810;6.418;2022-08-19T14:10:05;3.15;;;2.85;;
33900;SDS011;20193;49.810;6.418;2022-08-19T14:12:33;3.20;;;2.90;;
33900;SDS011;20193;49.810;6.418;2022-08-19T14:14:59;2.80;;;2.35;;
33900;SDS011;20193;49.810;6.418;2022-08-19T14:17:25;2.38;;;2.28;;
33900;SDS011;20193;49.810;6.418;2022-08-19T14:20:01;2.03;;;1.92;;
33900;SDS011;20193;49.810;6.418;2022-08-19T14:22:32;3.40;;;2.20;;
33900;SDS011;20193;49.810;6.418;2022-08-19T14:24:59;2.00;;;1.90;;
33900;SDS011;20193;49.810;6.418;2022-08-19T14:27:24;1.80;;;1.70;;
33900;SDS011;20193;49.810;6.418;2022-08-19T14:29:51;4.10;;;2.03;;
33900;SDS011;20193;49.810;6.418;2022-08-19T14:32:17;1.65;;;1.55;;
33900;SDS011;20193;49.810;6.418;2022-08-19T14:34:43;2.08;;;1.70;;
33900;SDS011;20193;49.810;6.418;2022-08-19T14:37:11;1.90;;;1.80;;
33900;SDS011;20193;49.810;6.418;2022-08-19T14:39:39;1.80;;;1.70;;
33900;SDS011;20193;49.810;6.418;2022-08-19T14:42:09;1.90;;;1.80;;
33900;SDS011;20193;49.810;6.418;2022-08-19T14:44:35;1.98;;;1.70;;
33900;SDS011;20193;49.810;6.418;2022-08-19T14:47:01;1.80;;;1.70;;
33900;SDS011;20193;49.810;6.418;2022-08-19T14:49:28;1.73;;;1.63;;